createdAt,value
2018-11-25T00:00:25.169Z,0.90
2018-11-25T00:02:53.744Z,0.93
2018-11-25T00:05:22.360Z,1.10
2018-11-25T00:07:50.880Z,1.10
2018-11-25T00:10:19.424Z,1.20
2018-11-25T00:12:47.908Z,0.90
2018-11-25T00:15:16.360Z,1.03
2018-11-25T00:17:44.794Z,1.10
2018-11-25T00:20:13.979Z,1.20
2018-11-25T00:22:42.954Z,1.20
2018-11-25T00:25:13.017Z,0.90
2018-11-25T00:27:41.622Z,1.07
2018-11-25T00:30:12.692Z,1.57
2018-11-25T00:32:41.266Z,1.20
2018-11-25T00:35:11.551Z,1.10
2018-11-25T00:37:47.529Z,1.10
2018-11-25T00:40:14.053Z,0.97
2018-11-25T00:42:43.279Z,1.30
2018-11-25T00:45:14.769Z,1.90
2018-11-25T00:47:43.282Z,0.90
2018-11-25T00:50:13.071Z,1.70
2018-11-25T00:52:41.537Z,0.87
2018-11-25T00:55:11.739Z,0.90
2018-11-25T00:57:40.235Z,0.90
2018-11-25T01:00:19.285Z,1.03
2018-11-25T01:02:49.210Z,0.87
2018-11-25T01:05:17.720Z,0.87
2018-11-25T01:07:46.257Z,1.00
2018-11-25T01:10:15.968Z,0.87
2018-11-25T01:12:45.441Z,1.40
2018-11-25T01:15:16.259Z,0.87
2018-11-25T01:17:44.966Z,0.97
2018-11-25T01:20:21.254Z,0.80
2018-11-25T01:22:49.708Z,0.97
2018-11-25T01:25:18.213Z,1.10
2018-11-25T01:27:47.070Z,1.93
2018-11-25T01:30:17.440Z,1.00
2018-11-25T01:32:45.881Z,1.30
2018-11-25T01:35:14.432Z,0.97
2018-11-25T01:37:46.896Z,1.03
2018-11-25T01:40:17.536Z,1.20
2018-11-25T01:42:46.116Z,0.80
2018-11-25T01:45:16.888Z,0.83
2018-11-25T01:47:45.459Z,1.10
2018-11-25T01:50:16.361Z,0.83
2018-11-25T01:52:45.950Z,0.93
2018-11-25T01:55:16.831Z,0.90
2018-11-25T01:57:45.304Z,0.80
2018-11-25T02:00:18.346Z,0.93
2018-11-25T02:02:46.947Z,1.00
2018-11-25T02:05:15.862Z,0.90
2018-11-25T02:07:44.424Z,0.83
2018-11-25T02:10:15.511Z,0.90
2018-11-25T02:12:44.073Z,0.90
2018-11-25T02:15:13.884Z,1.00
2018-11-25T02:17:42.401Z,0.80
2018-11-25T02:20:19.325Z,0.90
2018-11-25T02:22:48.015Z,1.00
2018-11-25T02:25:16.562Z,0.93
2018-11-25T02:27:45.364Z,0.90
2018-11-25T02:30:17.015Z,1.00
2018-11-25T02:32:46.256Z,0.90
2018-11-25T02:35:15.976Z,0.90
2018-11-25T02:37:44.660Z,1.00
2018-11-25T02:40:19.007Z,1.20
2018-11-25T02:42:47.482Z,0.80
2018-11-25T02:45:19.242Z,1.00
2018-11-25T02:47:47.880Z,0.70
2018-11-25T02:50:27.064Z,0.87
2018-11-25T02:52:57.022Z,0.80
2018-11-25T02:55:26.817Z,0.90
2018-11-25T02:57:55.206Z,0.80
2018-11-25T03:00:23.678Z,0.90
2018-11-25T03:02:52.570Z,0.80
2018-11-25T03:05:21.110Z,0.70
2018-11-25T03:07:49.574Z,0.80
2018-11-25T03:10:18.055Z,0.90
2018-11-25T03:12:46.492Z,1.40
2018-11-25T03:15:16.976Z,0.80
2018-11-25T03:17:45.611Z,0.87
2018-11-25T03:20:15.270Z,0.77
2018-11-25T03:22:47.701Z,1.30
2018-11-25T03:25:19.354Z,0.80
2018-11-25T03:27:47.881Z,0.80
2018-11-25T03:30:17.664Z,0.80
2018-11-25T03:32:47.531Z,1.10
2018-11-25T03:35:16.002Z,0.80
2018-11-25T03:37:44.457Z,1.13
2018-11-25T03:40:14.472Z,1.10
2018-11-25T03:42:42.941Z,1.00
2018-11-25T03:45:13.926Z,0.90
2018-11-25T03:47:42.426Z,0.67
2018-11-25T03:50:12.262Z,0.83
2018-11-25T03:52:40.802Z,0.80
2018-11-25T03:55:11.562Z,1.00
2018-11-25T03:57:40.127Z,0.90
2018-11-25T04:00:18.052Z,0.80
2018-11-25T04:02:46.588Z,0.90
2018-11-25T04:05:18.255Z,1.20
2018-11-25T04:07:46.739Z,0.80
2018-11-25T04:10:17.138Z,0.90
2018-11-25T04:12:45.659Z,0.80
2018-11-25T04:15:16.431Z,0.87
2018-11-25T04:17:45.468Z,0.97
2018-11-25T04:20:18.273Z,0.70
2018-11-25T04:22:46.964Z,0.90
2018-11-25T04:25:15.455Z,0.90
2018-11-25T04:27:43.931Z,0.90
2018-11-25T04:30:14.726Z,1.00
2018-11-25T04:32:44.292Z,0.90
2018-11-25T04:35:13.164Z,0.90
2018-11-25T04:37:41.793Z,0.80
2018-11-25T04:40:11.842Z,0.80
2018-11-25T04:42:40.274Z,0.90
2018-11-25T04:45:12.117Z,1.03
2018-11-25T04:47:40.654Z,0.83
2018-11-25T04:50:15.992Z,1.80
2018-11-25T04:52:44.865Z,0.80
2018-11-25T04:55:13.700Z,0.80
2018-11-25T04:57:45.969Z,0.90
2018-11-25T05:00:14.822Z,0.93
2018-11-25T05:02:43.303Z,0.80
2018-11-25T05:05:13.307Z,0.80
2018-11-25T05:07:41.750Z,0.90
2018-11-25T05:10:13.594Z,0.80
2018-11-25T05:12:45.970Z,0.90
2018-11-25T05:15:19.875Z,0.90
2018-11-25T05:17:48.518Z,0.80
2018-11-25T05:20:18.072Z,0.90
2018-11-25T05:22:46.533Z,1.00
2018-11-25T05:25:18.821Z,0.80
2018-11-25T05:27:47.358Z,0.90
2018-11-25T05:30:18.164Z,0.90
2018-11-25T05:32:46.718Z,0.77
2018-11-25T05:35:16.637Z,1.40
2018-11-25T05:37:45.112Z,0.80
2018-11-25T05:40:15.339Z,0.90
2018-11-25T05:42:43.882Z,1.30
2018-11-25T05:45:16.709Z,1.07
2018-11-25T05:47:45.187Z,1.35
2018-11-25T05:50:18.811Z,1.20
2018-11-25T05:52:47.307Z,0.78
2018-11-25T05:55:16.056Z,0.90
2018-11-25T05:57:44.561Z,0.82
2018-11-25T06:00:21.967Z,0.80
2018-11-25T06:02:51.069Z,0.73
2018-11-25T06:05:19.642Z,0.80
2018-11-25T06:07:48.072Z,0.73
2018-11-25T06:10:16.737Z,0.75
2018-11-25T06:12:45.169Z,1.00
2018-11-25T06:15:14.617Z,1.00
2018-11-25T06:17:43.200Z,0.90
2018-11-25T06:20:17.564Z,0.80
2018-11-25T06:22:46.476Z,0.98
2018-11-25T06:25:18.172Z,0.93
2018-11-25T06:27:46.672Z,0.98
2018-11-25T06:30:16.613Z,0.93
2018-11-25T06:32:45.003Z,0.80
2018-11-25T06:35:18.130Z,1.07
2018-11-25T06:37:46.600Z,0.80
2018-11-25T06:40:16.644Z,0.90
2018-11-25T06:42:45.147Z,0.80
2018-11-25T06:45:25.429Z,0.80
2018-11-25T06:47:55.703Z,0.90
2018-11-25T06:50:24.199Z,0.90
2018-11-25T06:52:52.745Z,0.90
2018-11-25T06:55:21.224Z,1.07
2018-11-25T06:57:49.672Z,2.25
2018-11-25T07:00:22.600Z,1.17
2018-11-25T07:02:51.151Z,0.93
2018-11-25T07:05:19.613Z,1.07
2018-11-25T07:07:48.069Z,1.42
2018-11-25T07:10:22.474Z,1.15
2018-11-25T07:12:54.678Z,0.90
2018-11-25T07:15:23.182Z,1.00
2018-11-25T07:17:51.696Z,0.90
2018-11-25T07:20:20.308Z,1.40
2018-11-25T07:22:48.730Z,0.93
2018-11-25T07:25:18.852Z,1.10
2018-11-25T07:27:47.470Z,1.03
2018-11-25T07:30:20.204Z,1.30
2018-11-25T07:32:49.010Z,0.93
2018-11-25T07:35:25.009Z,0.93
2018-11-25T07:37:54.052Z,1.00
2018-11-25T07:40:23.859Z,1.40
2018-11-25T07:42:53.292Z,1.45
2018-11-25T07:45:30.280Z,1.12
2018-11-25T07:47:53.153Z,1.10
2018-11-25T07:50:21.696Z,1.20
2018-11-25T07:52:50.899Z,1.20
2018-11-25T07:55:26.204Z,1.23
2018-11-25T07:57:57.138Z,1.27
2018-11-25T08:00:26.211Z,1.07
2018-11-25T08:02:54.706Z,1.17
2018-11-25T08:05:25.612Z,1.07
2018-11-25T08:07:54.034Z,1.20
2018-11-25T08:10:22.884Z,1.37
2018-11-25T08:12:51.321Z,1.20
2018-11-25T08:15:20.291Z,1.70
2018-11-25T08:17:48.798Z,1.83
2018-11-25T08:20:19.356Z,1.73
2018-11-25T08:22:47.888Z,1.40
2018-11-25T08:25:18.801Z,1.30
2018-11-25T08:27:47.317Z,2.10
2018-11-25T08:30:20.015Z,1.23
2018-11-25T08:32:49.317Z,2.00
2018-11-25T08:35:18.244Z,1.40
2018-11-25T08:37:46.752Z,1.60
2018-11-25T08:40:17.873Z,1.60
2018-11-25T08:42:47.105Z,1.33
2018-11-25T08:45:16.197Z,1.10
2018-11-25T08:47:44.669Z,1.53
2018-11-25T08:50:14.496Z,2.00
2018-11-25T08:52:44.478Z,1.73
2018-11-25T08:55:14.704Z,2.00
2018-11-25T08:57:43.362Z,1.90
2018-11-25T09:00:21.263Z,1.57
2018-11-25T09:02:50.798Z,1.93
2018-11-25T09:05:19.468Z,1.70
2018-11-25T09:07:47.957Z,1.83
2018-11-25T09:10:21.698Z,1.90
2018-11-25T09:12:55.727Z,2.10
2018-11-25T09:15:23.308Z,1.67
2018-11-25T09:17:52.113Z,2.03
2018-11-25T09:20:21.694Z,1.93
2018-11-25T09:22:51.151Z,2.00
2018-11-25T09:25:27.269Z,1.73
2018-11-25T09:27:56.942Z,1.70
2018-11-25T09:30:27.735Z,2.63
2018-11-25T09:32:56.468Z,1.93
2018-11-25T09:35:25.329Z,2.13
2018-11-25T09:38:12.122Z,2.17
2018-11-25T09:40:50.193Z,2.20
2018-11-25T09:43:29.845Z,2.20
2018-11-25T09:46:02.946Z,2.13
2018-11-25T09:48:33.286Z,2.27
2018-11-25T09:51:05.499Z,1.93
2018-11-25T09:53:40.593Z,2.03
2018-11-25T09:56:17.223Z,2.20
2018-11-25T09:58:47.135Z,2.13
2018-11-25T10:01:16.730Z,2.50
2018-11-25T10:03:45.376Z,1.87
2018-11-25T10:06:13.632Z,2.53
2018-11-25T10:08:42.038Z,2.90
2018-11-25T10:11:13.721Z,2.10
2018-11-25T10:20:17.173Z,1.70
2018-11-25T10:22:48.652Z,2.40
2018-11-25T10:25:19.357Z,2.20
2018-11-25T10:27:47.988Z,2.53
2018-11-25T10:30:23.307Z,2.53
2018-11-25T10:32:55.099Z,2.70
2018-11-25T10:35:33.655Z,2.53
2018-11-25T10:38:09.606Z,2.57
2018-11-25T10:40:39.552Z,2.50
2018-11-25T10:43:08.081Z,2.70
2018-11-25T10:45:36.207Z,2.30
2018-11-25T10:48:05.711Z,2.87
2018-11-25T10:50:34.592Z,2.73
2018-11-25T10:53:02.844Z,2.20
2018-11-25T10:55:34.176Z,6.13
2018-11-25T10:58:05.581Z,7.37
2018-11-25T11:00:55.706Z,3.50
2018-11-25T11:04:01.043Z,3.67
2018-11-25T11:06:49.998Z,2.77
2018-11-25T11:09:20.708Z,2.47
2018-11-25T11:11:55.046Z,2.43
2018-11-25T11:14:29.654Z,2.33
2018-11-25T11:17:12.389Z,2.30
2018-11-25T11:19:45.152Z,2.37
2018-11-25T11:22:22.702Z,2.97
2018-11-25T11:24:55.589Z,2.93
2018-11-25T11:27:39.297Z,2.60
2018-11-25T11:30:17.443Z,2.53
2018-11-25T11:33:02.375Z,2.87
2018-11-25T11:35:33.232Z,2.77
2018-11-25T11:40:58.875Z,2.67
2018-11-25T11:43:27.196Z,2.50
2018-11-25T11:45:55.649Z,2.53
2018-11-25T11:48:24.045Z,2.53
2018-11-25T11:50:52.480Z,2.57
2018-11-25T11:53:20.868Z,2.33
2018-11-25T11:55:49.244Z,2.63
2018-11-25T11:58:17.723Z,2.43
2018-11-25T12:00:46.169Z,2.10
2018-11-25T12:03:14.620Z,2.50
2018-11-25T12:05:43.075Z,2.40
2018-11-25T12:08:11.773Z,2.53
2018-11-25T12:10:40.254Z,2.70
2018-11-25T12:13:08.681Z,2.80
2018-11-25T12:15:37.090Z,2.70
2018-11-25T12:18:06.853Z,2.47
2018-11-25T12:20:35.529Z,2.97
2018-11-25T12:23:04.349Z,2.53
2018-11-25T12:25:33.074Z,2.70
2018-11-25T12:28:01.551Z,3.10
2018-11-25T12:30:29.947Z,3.07
2018-11-25T12:32:58.377Z,3.57
2018-11-25T12:35:26.793Z,2.60
2018-11-25T12:37:55.211Z,3.17
2018-11-25T12:40:23.734Z,3.03
2018-11-25T12:42:58.710Z,2.80
2018-11-25T12:45:27.215Z,2.80
2018-11-25T12:47:55.605Z,2.90
2018-11-25T12:50:25.608Z,2.70
2018-11-25T12:52:54.612Z,3.17
2018-11-25T12:55:24.945Z,2.70
2018-11-25T12:57:54.102Z,2.80
2018-11-25T13:00:32.089Z,2.80
2018-11-25T13:03:00.997Z,2.70
2018-11-25T13:05:36.595Z,2.90
2018-11-25T13:08:06.200Z,2.60
2018-11-25T13:10:34.573Z,2.27
2018-11-25T13:13:03.066Z,3.03
2018-11-25T13:15:31.514Z,2.70
2018-11-25T13:17:59.933Z,2.90
2018-11-25T13:20:28.403Z,2.67
2018-11-25T13:22:56.835Z,2.60
2018-11-25T13:25:25.421Z,2.93
2018-11-25T13:27:53.857Z,2.80
2018-11-25T13:30:24.134Z,3.10
2018-11-25T13:32:54.304Z,2.93
2018-11-25T13:35:23.292Z,2.70
2018-11-25T13:37:51.890Z,2.80
2018-11-25T13:40:20.284Z,2.80
2018-11-25T13:42:48.663Z,2.77
2018-11-25T13:45:17.065Z,3.50
2018-11-25T13:47:45.532Z,1.90
2018-11-25T13:50:13.988Z,2.20
2018-11-25T13:52:42.468Z,2.03
2018-11-25T13:55:13.978Z,2.27
2018-11-25T13:57:42.424Z,2.23
2018-11-25T14:00:18.100Z,2.20
2018-11-25T14:02:46.505Z,2.03
2018-11-25T14:05:15.377Z,2.03
2018-11-25T14:07:43.761Z,2.20
2018-11-25T14:10:17.643Z,2.53
2018-11-25T14:12:46.082Z,2.57
2018-11-25T14:15:14.508Z,2.47
2018-11-25T14:17:43.039Z,7.27
2018-11-25T14:20:11.457Z,6.00
2018-11-25T14:22:39.865Z,3.97
2018-11-25T14:25:12.079Z,3.20
2018-11-25T14:27:40.689Z,3.70
2018-11-25T14:30:20.083Z,3.07
2018-11-25T14:32:48.602Z,3.20
2018-11-25T14:35:17.602Z,3.07
2018-11-25T14:37:46.069Z,3.70
2018-11-25T14:40:19.018Z,3.90
2018-11-25T14:42:47.793Z,4.10
2018-11-25T14:45:17.511Z,4.13
2018-11-25T14:47:45.960Z,4.03
2018-11-25T14:50:17.286Z,3.97
2018-11-25T14:52:47.906Z,3.83
2018-11-25T14:55:16.983Z,4.17
2018-11-25T14:57:45.400Z,4.13
2018-11-25T15:00:16.804Z,4.40
2018-11-25T15:02:47.572Z,4.83
2018-11-25T15:05:30.481Z,4.30
2018-11-25T15:07:59.101Z,4.47
2018-11-25T15:10:27.538Z,4.67
2018-11-25T15:12:55.923Z,3.97
2018-11-25T15:15:24.395Z,4.07
2018-11-25T15:17:52.756Z,4.13
2018-11-25T15:20:21.123Z,4.57
2018-11-25T15:22:52.421Z,4.40
2018-11-25T15:25:31.170Z,3.77
2018-11-25T15:27:59.725Z,5.03
2018-11-25T15:30:28.191Z,5.23
2018-11-25T15:32:56.591Z,5.03
2018-11-25T15:35:25.021Z,4.43
2018-11-25T15:37:54.578Z,5.27
2018-11-25T15:40:29.497Z,7.97
2018-11-25T15:42:58.024Z,4.70
2018-11-25T15:45:26.462Z,4.17
2018-11-25T15:48:07.931Z,3.87
2018-11-25T15:50:36.380Z,3.90
2018-11-25T15:53:05.897Z,3.63
2018-11-25T15:55:34.323Z,3.80
2018-11-25T15:58:02.809Z,4.47
2018-11-25T16:00:31.249Z,4.30
2018-11-25T16:02:59.802Z,5.30
2018-11-25T16:05:31.444Z,6.33
2018-11-25T16:08:00.448Z,7.17
2018-11-25T16:10:29.243Z,5.60
2018-11-25T16:12:57.681Z,4.50
2018-11-25T16:15:27.530Z,4.07
2018-11-25T16:17:56.279Z,4.93
2018-11-25T16:20:27.309Z,3.40
2018-11-25T16:22:58.852Z,4.07
2018-11-25T16:25:38.283Z,2.93
2018-11-25T16:28:15.329Z,3.73
2018-11-25T16:30:43.834Z,3.33
2018-11-25T16:33:12.324Z,3.17
2018-11-25T16:35:40.959Z,3.27
2018-11-25T16:38:09.542Z,3.50
2018-11-25T16:40:38.021Z,3.83
2018-11-25T16:43:06.726Z,3.43
2018-11-25T16:45:35.200Z,4.20
2018-11-25T16:48:03.698Z,4.37
2018-11-25T16:50:32.481Z,6.23
2018-11-25T16:53:00.905Z,5.77
2018-11-25T16:55:29.313Z,4.90
2018-11-25T16:57:57.800Z,6.07
2018-11-25T17:00:30.298Z,4.77
2018-11-25T17:02:58.727Z,4.97
2018-11-25T17:05:32.238Z,4.43
2018-11-25T17:08:11.930Z,4.13
2018-11-25T17:10:40.441Z,3.87
2018-11-25T17:13:08.847Z,3.93
2018-11-25T17:15:37.292Z,3.63
2018-11-25T17:18:06.136Z,3.43
2018-11-25T17:20:34.579Z,2.73
2018-11-25T17:23:03.023Z,3.00
2018-11-25T17:25:31.509Z,3.63
2018-11-25T17:28:01.648Z,2.20
2018-11-25T17:30:30.279Z,3.07
2018-11-25T17:32:58.661Z,2.43
2018-11-25T17:35:29.381Z,2.50
2018-11-25T17:37:57.845Z,2.43
2018-11-25T17:40:26.384Z,3.40
2018-11-25T17:42:55.046Z,3.90
2018-11-25T17:45:23.573Z,2.57
2018-11-25T17:47:52.564Z,2.93
2018-11-25T17:50:29.345Z,2.73
2018-11-25T17:52:58.038Z,2.43
2018-11-25T17:55:28.290Z,2.77
2018-11-25T17:57:57.279Z,2.50
2018-11-25T18:00:50.522Z,3.00
2018-11-25T18:03:24.898Z,4.87
2018-11-25T18:05:54.208Z,3.03
2018-11-25T18:08:22.815Z,2.37
2018-11-25T18:10:51.554Z,2.20
2018-11-25T18:13:22.370Z,2.63
2018-11-25T18:15:52.338Z,2.60
2018-11-25T18:18:34.536Z,2.90
2018-11-25T18:21:08.210Z,2.97
2018-11-25T18:23:37.149Z,3.17
2018-11-25T18:26:06.323Z,5.70
2018-11-25T18:28:34.770Z,5.20
2018-11-25T18:31:03.271Z,4.23
2018-11-25T18:33:32.596Z,4.93
2018-11-25T18:36:01.488Z,4.60
2018-11-25T18:38:29.938Z,5.23
2018-11-25T18:40:58.362Z,4.30
2018-11-25T18:43:26.934Z,4.77
2018-11-25T18:45:59.386Z,4.40
2018-11-25T18:48:25.888Z,4.20
2018-11-25T18:50:54.398Z,4.77
2018-11-25T18:53:23.045Z,4.67
2018-11-25T18:55:50.298Z,4.47
2018-11-25T18:58:18.931Z,4.47
2018-11-25T19:01:15.127Z,3.90
2018-11-25T19:03:43.568Z,5.03
2018-11-25T19:06:12.108Z,3.87
2018-11-25T19:08:41.473Z,4.20
2018-11-25T19:11:10.273Z,4.83
2018-11-25T19:13:39.292Z,4.43
2018-11-25T19:16:08.372Z,4.73
2018-11-25T19:18:37.553Z,4.77
2018-11-25T19:21:06.111Z,3.80
2018-11-25T19:23:34.974Z,4.67
2018-11-25T19:26:03.730Z,3.90
2018-11-25T19:28:32.235Z,5.10
2018-11-25T19:31:01.363Z,5.43
2018-11-25T19:33:29.870Z,4.70
2018-11-25T19:35:58.490Z,4.33
2018-11-25T19:38:27.616Z,4.73
2018-11-25T19:40:56.239Z,5.70
2018-11-25T19:43:25.001Z,5.43
2018-11-25T19:45:53.510Z,4.10
2018-11-25T19:48:21.997Z,4.70
2018-11-25T19:50:50.511Z,3.47
2018-11-25T19:53:19.384Z,3.53
2018-11-25T19:55:49.187Z,3.63
2018-11-25T19:58:17.703Z,2.87
2018-11-25T20:00:46.750Z,4.30
2018-11-25T20:03:15.554Z,3.93
2018-11-25T20:05:44.418Z,3.57
2018-11-25T20:08:13.057Z,3.37
2018-11-25T20:10:41.651Z,3.33
2018-11-25T20:13:11.846Z,3.20
2018-11-25T20:15:39.439Z,3.50
2018-11-25T20:18:09.833Z,3.40
2018-11-25T20:20:38.601Z,3.83
2018-11-25T20:23:10.622Z,3.80
2018-11-25T20:25:40.859Z,4.40
2018-11-25T20:28:10.111Z,6.93
2018-11-25T20:30:38.769Z,5.37
2018-11-25T20:33:13.230Z,4.37
2018-11-25T20:35:41.805Z,3.73
2018-11-25T20:38:15.873Z,4.03
2018-11-25T20:40:45.182Z,4.63
2018-11-25T20:43:13.665Z,4.10
2018-11-25T20:45:47.867Z,4.87
2018-11-25T20:48:16.437Z,3.77
2018-11-25T20:50:45.131Z,4.20
2018-11-25T20:53:20.686Z,3.57
2018-11-25T20:55:47.867Z,3.87
2018-11-25T20:58:16.300Z,3.50
2018-11-25T21:00:44.792Z,4.23
2018-11-25T21:03:13.579Z,3.50
2018-11-25T21:05:42.165Z,3.17
2018-11-25T21:08:10.578Z,3.33
2018-11-25T21:10:39.030Z,3.47
2018-11-25T21:13:08.277Z,3.73
2018-11-25T21:15:37.240Z,3.80
2018-11-25T21:18:06.387Z,3.03
2018-11-25T21:20:34.757Z,3.60
2018-11-25T21:23:03.858Z,5.17
2018-11-25T21:25:36.873Z,3.30
2018-11-25T21:28:05.784Z,3.23
2018-11-25T21:30:34.739Z,4.27
2018-11-25T21:33:05.197Z,3.40
2018-11-25T21:35:33.664Z,3.30
2018-11-25T21:38:02.086Z,3.37
2018-11-25T21:40:30.552Z,4.00
2018-11-25T21:42:58.976Z,3.47
2018-11-25T21:45:27.435Z,4.63
2018-11-25T21:47:55.964Z,3.57
2018-11-25T21:50:26.416Z,4.70
2018-11-25T21:52:54.994Z,4.27
2018-11-25T21:55:24.154Z,4.67
2018-11-25T21:57:52.607Z,4.10
2018-11-25T22:00:22.425Z,3.97
2018-11-25T22:02:51.037Z,5.20
2018-11-25T22:05:20.111Z,4.13
2018-11-25T22:07:48.372Z,4.40
2018-11-25T22:10:18.975Z,3.93
2018-11-25T22:12:47.793Z,3.73
2018-11-25T22:15:17.914Z,3.30
2018-11-25T22:17:46.775Z,3.10
2018-11-25T22:20:15.996Z,3.07
2018-11-25T22:22:44.491Z,2.83
2018-11-25T22:25:15.143Z,2.40
2018-11-25T22:27:43.695Z,2.40
2018-11-25T22:30:21.878Z,2.47
2018-11-25T22:32:50.706Z,2.17
2018-11-25T22:35:21.117Z,2.23
2018-11-25T22:37:49.557Z,2.20
2018-11-25T22:40:18.709Z,2.60
2018-11-25T22:42:49.497Z,3.07
2018-11-25T22:45:20.768Z,3.50
2018-11-25T22:47:49.967Z,3.03
2018-11-25T22:50:21.440Z,4.23
2018-11-25T22:52:50.118Z,4.83
2018-11-25T22:55:22.740Z,4.80
2018-11-25T22:57:51.289Z,4.20
2018-11-25T23:00:26.517Z,4.13
2018-11-25T23:02:55.147Z,4.17
2018-11-25T23:05:40.473Z,3.80
2018-11-25T23:08:10.013Z,4.10
2018-11-25T23:10:38.469Z,3.40
2018-11-25T23:13:06.980Z,4.67
2018-11-25T23:15:35.485Z,3.50
2018-11-25T23:18:04.099Z,3.90
2018-11-25T23:20:32.555Z,3.77
2018-11-25T23:23:01.071Z,3.63
2018-11-25T23:25:29.570Z,3.93
2018-11-25T23:27:58.003Z,3.47
2018-11-25T23:30:26.478Z,3.90
2018-11-25T23:32:54.904Z,3.60
2018-11-25T23:35:27.148Z,3.30
2018-11-25T23:37:55.629Z,3.63
2018-11-25T23:40:24.246Z,3.47
2018-11-25T23:42:52.715Z,3.50
2018-11-25T23:45:21.197Z,4.83
2018-11-25T23:47:49.653Z,3.37
2018-11-25T23:50:18.138Z,3.40
2018-11-25T23:52:48.020Z,3.67
2018-11-25T23:55:16.492Z,4.10
2018-11-25T23:57:44.947Z,3.40
